Aripeka, Florida
Current Conditions -  °F | °C
As of 2:53 PM on Thursday 30 Oct 2014 (Local Time) from KBKV Reporting Station
Few Clouds Few Clouds  
Wind Chill: 81°   Ceiling: Unl
Heat Index: 81°   Visibility: 10mi
Dew Point: 59°   Wind: 0mph
Humidity: 47%   Direction: NA
Pressure: 29.91"   Gusts: NA
Location:  28.43°N, 82.66°W
Report Text: KBKV 301853Z 00000KT 10SM FEW095 27/15 A2991 RMK AO2 SLP129 T02720150
Loading
Personal Weather Stations






























Interactive Weather Map New forecast layout! Learn more

10-Day Weather Forecast

Advertisements
Track Severe Weather on mobile